createdAt,value
2022-11-27T00:00:36.715Z,0
2022-11-27T00:01:30.824Z,0
2022-11-27T00:02:27.003Z,0
2022-11-27T00:03:39.138Z,0
2022-11-27T00:04:33.447Z,0
2022-11-27T00:05:37.341Z,0
2022-11-27T00:06:37.481Z,0
2022-11-27T00:07:35.564Z,0
2022-11-27T00:08:45.369Z,0
2022-11-27T00:09:28.816Z,0
2022-11-27T00:10:48.524Z,0
2022-11-27T00:13:31.585Z,0
2022-11-27T00:13:36.666Z,0
2022-11-27T00:13:49.965Z,0
2022-11-27T00:14:30.616Z,0
2022-11-27T00:15:33.085Z,0
2022-11-27T00:16:22.399Z,0
2022-11-27T00:17:22.794Z,0
2022-11-27T00:18:32.332Z,0
2022-11-27T00:19:32.201Z,0
2022-11-27T00:20:29.694Z,0
2022-11-27T00:21:34.249Z,0
2022-11-27T00:22:27.044Z,0
2022-11-27T00:23:27.315Z,0
2022-11-27T00:24:25.172Z,0
2022-11-27T00:25:26.636Z,0
2022-11-27T00:26:24.206Z,0
2022-11-27T00:27:27.847Z,0
2022-11-27T00:28:32.108Z,0
2022-11-27T00:29:28.434Z,0
2022-11-27T00:30:25.366Z,0
2022-11-27T00:31:33.225Z,0
2022-11-27T00:32:27.562Z,0
2022-11-27T00:33:34.765Z,0
2022-11-27T00:34:20.405Z,0
2022-11-27T00:35:24.877Z,0
2022-11-27T00:36:24.576Z,0
2022-11-27T00:37:25.575Z,0
2022-11-27T00:38:37.389Z,0
2022-11-27T00:39:26.485Z,0
2022-11-27T00:40:23.717Z,0
2022-11-27T00:41:26.231Z,0
2022-11-27T00:42:28.635Z,0
2022-11-27T00:43:21.735Z,0
2022-11-27T00:44:20.990Z,0
2022-11-27T00:45:30.172Z,0
2022-11-27T00:46:28.758Z,0
2022-11-27T00:47:23.007Z,0
2022-11-27T00:48:29.881Z,0
2022-11-27T00:49:32.610Z,0
2022-11-27T00:50:26.083Z,0
2022-11-27T00:51:20.919Z,0
2022-11-27T00:52:22.322Z,0
2022-11-27T00:53:26.826Z,0
2022-11-27T00:54:25.478Z,0
2022-11-27T00:55:21.774Z,0
2022-11-27T00:56:28.904Z,0
2022-11-27T00:57:27.307Z,0
2022-11-27T00:58:24.809Z,0
2022-11-27T00:59:27.733Z,0
2022-11-27T01:00:26.370Z,0
2022-11-27T01:01:24.085Z,0
2022-11-27T01:02:25.851Z,0
2022-11-27T01:03:30.456Z,0
2022-11-27T01:04:27.989Z,0
2022-11-27T01:05:20.546Z,0
2022-11-27T01:06:27.989Z,0
2022-11-27T01:07:27.371Z,0
2022-11-27T01:08:26.862Z,0
2022-11-27T01:09:30.795Z,0
2022-11-27T01:10:22.514Z,0
2022-11-27T01:11:28.962Z,0
2022-11-27T01:12:27.076Z,0
2022-11-27T01:13:26.098Z,0
2022-11-27T01:14:29.762Z,0
2022-11-27T01:15:27.019Z,0
2022-11-27T01:16:40.769Z,0
2022-11-27T01:17:31.023Z,0
2022-11-27T01:18:29.535Z,0
2022-11-27T01:19:23.599Z,0
2022-11-27T01:20:31.629Z,0
2022-11-27T01:21:23.097Z,0
2022-11-27T01:22:20.777Z,0
2022-11-27T01:23:37.326Z,0
2022-11-27T01:24:29.285Z,0
2022-11-27T01:25:27.307Z,0
2022-11-27T01:26:40.347Z,0
2022-11-27T01:27:31.423Z,0
2022-11-27T01:28:32.206Z,0
2022-11-27T01:29:25.683Z,0
2022-11-27T01:30:41.595Z,0
2022-11-27T01:31:38.549Z,0
2022-11-27T01:32:31.005Z,0
2022-11-27T01:33:24.537Z,0
2022-11-27T01:34:31.640Z,0
2022-11-27T01:35:29.275Z,0
2022-11-27T01:36:25.950Z,0
2022-11-27T01:37:33.407Z,0
2022-11-27T01:38:28.574Z,0
2022-11-27T01:39:27.114Z,0
2022-11-27T01:40:25.289Z,0
2022-11-27T01:41:33.348Z,0
2022-11-27T01:42:30.761Z,0
2022-11-27T01:43:22.954Z,0
2022-11-27T01:44:33.653Z,0
2022-11-27T01:45:28.897Z,0
2022-11-27T01:46:24.848Z,0
2022-11-27T01:47:23.557Z,0
2022-11-27T01:48:27.542Z,0
2022-11-27T01:49:31.731Z,0
2022-11-27T01:50:26.280Z,0
2022-11-27T01:51:28.514Z,0
2022-11-27T01:52:32.395Z,0
2022-11-27T01:53:28.291Z,0
2022-11-27T01:54:24.052Z,0
2022-11-27T01:55:23.989Z,0
2022-11-27T01:56:30.706Z,0
2022-11-27T01:57:26.133Z,0
2022-11-27T01:58:27.940Z,0
2022-11-27T01:59:22.267Z,0
2022-11-27T02:00:47.415Z,0
2022-11-27T02:01:35.350Z,0
2022-11-27T02:02:38.684Z,0
2022-11-27T02:40:34.252Z,0
2022-11-27T02:41:28.271Z,0
2022-11-27T02:42:37.558Z,0
2022-11-27T02:43:29.421Z,0
2022-11-27T02:44:26.159Z,0
2022-11-27T02:45:29.441Z,0
2022-11-27T03:18:26.327Z,0
2022-11-27T03:19:37.191Z,0
2022-11-27T03:20:24.115Z,0
2022-11-27T03:21:28.793Z,0
2022-11-27T03:22:28.239Z,0
2022-11-27T03:23:33.045Z,0
2022-11-27T03:24:40.652Z,0
2022-11-27T03:26:16.868Z,0
2022-11-27T03:26:26.061Z,0
2022-11-27T03:27:29.026Z,0
2022-11-27T03:28:23.170Z,0
2022-11-27T03:29:34.238Z,0
2022-11-27T03:30:22.406Z,0
2022-11-27T03:31:27.619Z,0
2022-11-27T03:32:21.041Z,0
2022-11-27T03:33:31.373Z,0
2022-11-27T03:34:20.602Z,0
2022-11-27T03:35:26.699Z,0
2022-11-27T03:36:34.824Z,0
2022-11-27T03:37:24.055Z,0
2022-11-27T03:38:27.518Z,0
2022-11-27T03:39:20.481Z,0
2022-11-27T03:40:48.076Z,0
2022-11-27T03:41:27.933Z,0
2022-11-27T03:42:25.312Z,0
2022-11-27T03:43:27.613Z,0
2022-11-27T03:44:33.041Z,0
2022-11-27T03:45:27.211Z,0
2022-11-27T03:46:22.973Z,0
2022-11-27T03:47:34.392Z,0
2022-11-27T03:48:22.234Z,0
2022-11-27T03:49:25.712Z,0
2022-11-27T03:50:32.689Z,0
2022-11-27T03:51:28.702Z,0
2022-11-27T03:52:24.915Z,0
2022-11-27T03:53:23.175Z,0
2022-11-27T03:54:30.048Z,0
2022-11-27T03:55:26.778Z,0
2022-11-27T03:56:29.741Z,0
2022-11-27T03:57:36.448Z,0
2022-11-27T03:58:29.950Z,0
2022-11-27T03:59:24.664Z,0
2022-11-27T04:00:51.927Z,0
2022-11-27T04:01:54.457Z,0
2022-11-27T04:02:34.325Z,0
2022-11-27T04:03:28.228Z,0
2022-11-27T04:04:37.937Z,0
2022-11-27T04:05:32.619Z,0
2022-11-27T04:06:33.032Z,0
2022-11-27T04:07:45.481Z,0
2022-11-27T04:08:44.290Z,0
2022-11-27T04:09:35.844Z,0
2022-11-27T04:10:32.675Z,0
2022-11-27T04:11:36.405Z,0
2022-11-27T04:12:44.892Z,0
2022-11-27T04:13:31.427Z,0
2022-11-27T04:16:16.375Z,0
2022-11-27T04:17:27.026Z,0
2022-11-27T04:18:14.180Z,0
2022-11-27T04:18:34.296Z,0
2022-11-27T04:19:31.449Z,0
2022-11-27T04:20:27.008Z,0
2022-11-27T04:21:44.122Z,0
2022-11-27T04:22:29.767Z,0
2022-11-27T04:23:40.526Z,0
2022-11-27T04:24:45.564Z,0
2022-11-27T04:25:48.100Z,0
2022-11-27T04:26:41.382Z,0
2022-11-27T04:27:26.799Z,0
2022-11-27T04:29:12.961Z,0
2022-11-27T04:29:51.699Z,0
2022-11-27T04:30:33.891Z,0
2022-11-27T04:31:31.892Z,0
2022-11-27T04:32:47.528Z,0
2022-11-27T04:33:23.764Z,0
2022-11-27T04:34:25.131Z,0
2022-11-27T04:35:31.353Z,0
2022-11-27T04:36:25.712Z,0
2022-11-27T04:37:40.265Z,0
2022-11-27T04:38:28.216Z,0
2022-11-27T04:39:27.573Z,0
2022-11-27T04:40:32.530Z,0
2022-11-27T04:41:34.403Z,0
2022-11-27T04:42:24.805Z,0
2022-11-27T04:43:37.387Z,0
2022-11-27T04:44:39.566Z,0
2022-11-27T04:45:36.910Z,0
2022-11-27T04:46:22.510Z,0
2022-11-27T04:47:23.542Z,0
2022-11-27T04:48:29.922Z,0
2022-11-27T04:49:28.432Z,0
2022-11-27T04:50:30.921Z,0
2022-11-27T04:51:29.685Z,0
2022-11-27T04:52:37.905Z,0
2022-11-27T04:53:26.831Z,0
2022-11-27T04:54:23.927Z,0
2022-11-27T04:55:34.246Z,0
2022-11-27T04:56:41.396Z,0
2022-11-27T04:57:24.345Z,0
2022-11-27T04:58:42.791Z,0
2022-11-27T04:59:29.102Z,0
2022-11-27T05:00:42.456Z,0
2022-11-27T05:01:30.197Z,0
2022-11-27T05:02:36.393Z,0
2022-11-27T05:03:28.047Z,0
2022-11-27T05:04:39.613Z,0
2022-11-27T05:05:32.055Z,0
2022-11-27T05:06:26.615Z,0
2022-11-27T05:07:32.800Z,0
2022-11-27T05:08:39.860Z,0
2022-11-27T05:09:23.452Z,0
2022-11-27T05:10:26.904Z,0
2022-11-27T05:11:42.860Z,0
2022-11-27T05:12:26.829Z,0
2022-11-27T05:13:23.092Z,0
2022-11-27T05:14:54.431Z,0
2022-11-27T05:15:32.459Z,0
2022-11-27T05:16:24.148Z,0
2022-11-27T05:17:25.339Z,0
2022-11-27T05:18:36.683Z,0
2022-11-27T05:19:32.370Z,0
2022-11-27T05:20:29.331Z,0
2022-11-27T05:21:32.995Z,0
2022-11-27T05:22:32.187Z,0
2022-11-27T05:23:24.536Z,0
2022-11-27T05:24:25.642Z,0
2022-11-27T05:25:32.841Z,0
2022-11-27T05:26:30.299Z,0
2022-11-27T05:27:25.746Z,0
2022-11-27T05:28:34.146Z,0
2022-11-27T05:29:28.983Z,0
2022-11-27T05:30:28.395Z,0
2022-11-27T05:31:21.098Z,0
2022-11-27T05:32:19.364Z,0
2022-11-27T05:33:29.430Z,0
2022-11-27T05:34:22.690Z,0
2022-11-27T05:35:26.131Z,0
2022-11-27T05:36:29.332Z,0
2022-11-27T05:37:27.559Z,0
2022-11-27T05:38:21.349Z,0
2022-11-27T05:39:24.867Z,0
2022-11-27T05:40:26.996Z,0
2022-11-27T05:41:24.802Z,0
2022-11-27T05:42:25.197Z,0
2022-11-27T05:43:28.950Z,0
2022-11-27T05:44:25.148Z,0
2022-11-27T05:45:20.790Z,0
2022-11-27T05:46:20.466Z,0
2022-11-27T05:47:22.955Z,0
2022-11-27T05:48:29.343Z,0
2022-11-27T05:49:30.852Z,0
2022-11-27T05:50:22.932Z,0
2022-11-27T05:51:26.441Z,0
2022-11-27T05:52:25.767Z,0
2022-11-27T05:53:34.866Z,0
2022-11-27T05:54:28.506Z,0
2022-11-27T05:55:22.865Z,0
2022-11-27T05:56:34.280Z,0
2022-11-27T05:57:26.627Z,0
2022-11-27T05:58:26.761Z,0
2022-11-27T05:59:21.024Z,0
2022-11-27T06:00:30.762Z,0
2022-11-27T06:01:29.440Z,0
2022-11-27T06:02:29.207Z,0
2022-11-27T06:03:22.199Z,0
2022-11-27T06:04:30.439Z,0
2022-11-27T06:05:26.551Z,0
2022-11-27T06:06:21.819Z,0
2022-11-27T06:07:30.725Z,0
2022-11-27T06:08:27.016Z,0
2022-11-27T06:09:24.442Z,0
2022-11-27T06:10:19.677Z,0
2022-11-27T06:11:30.127Z,0
2022-11-27T06:12:29.495Z,0
2022-11-27T06:13:22.186Z,0
2022-11-27T06:14:33.017Z,0
2022-11-27T06:15:26.830Z,0
2022-11-27T06:16:23.938Z,0
2022-11-27T06:17:26.239Z,0
2022-11-27T06:18:31.936Z,0
2022-11-27T06:19:28.675Z,0
2022-11-27T06:20:24.221Z,0
2022-11-27T06:21:21.788Z,0
2022-11-27T06:22:32.025Z,0
2022-11-27T06:23:22.856Z,0
2022-11-27T06:24:29.606Z,0
2022-11-27T06:25:24.646Z,0
2022-11-27T06:26:26.731Z,0
2022-11-27T06:27:20.580Z,0
2022-11-27T06:28:21.140Z,0
2022-11-27T06:29:33.735Z,0
2022-11-27T06:30:23.034Z,0
2022-11-27T06:31:23.226Z,0
2022-11-27T06:32:21.598Z,0
2022-11-27T06:33:29.451Z,0
2022-11-27T06:34:24.922Z,0
2022-11-27T06:35:29.001Z,0
2022-11-27T06:36:28.129Z,0
2022-11-27T06:37:25.427Z,0
2022-11-27T06:38:41.797Z,0
2022-11-27T06:39:22.334Z,0
2022-11-27T06:40:26.160Z,0
2022-11-27T06:41:20.795Z,0
2022-11-27T06:42:30.686Z,0
2022-11-27T06:43:22.346Z,0
2022-11-27T06:44:23.116Z,0
2022-11-27T06:45:36.249Z,0
2022-11-27T06:46:25.455Z,0
2022-11-27T06:47:27.738Z,0
2022-11-27T06:48:23.049Z,0
2022-11-27T06:49:36.151Z,0
2022-11-27T06:50:25.219Z,0
2022-11-27T06:51:23.113Z,0
2022-11-27T06:52:40.173Z,0
2022-11-27T06:53:28.664Z,0
2022-11-27T06:54:29.558Z,0
2022-11-27T06:55:26.751Z,0
2022-11-27T06:56:32.411Z,0
2022-11-27T06:57:22.964Z,0
2022-11-27T06:58:31.036Z,0
2022-11-27T06:59:26.212Z,0
2022-11-27T07:00:35.993Z,0
2022-11-27T07:01:25.355Z,0
2022-11-27T07:02:22.893Z,0
2022-11-27T07:03:23.058Z,0
2022-11-27T07:04:29.277Z,0
2022-11-27T07:05:31.452Z,0
2022-11-27T07:06:20.121Z,0
2022-11-27T07:07:30.079Z,0
2022-11-27T07:08:25.585Z,0
2022-11-27T07:09:23.794Z,0
2022-11-27T07:10:28.396Z,0
2022-11-27T07:11:31.071Z,0
2022-11-27T07:12:22.604Z,0
2022-11-27T07:13:23.469Z,0
2022-11-27T07:14:30.897Z,0
2022-11-27T07:15:25.498Z,0
2022-11-27T07:16:25.905Z,0
2022-11-27T07:17:31.981Z,0
2022-11-27T07:18:25.361Z,0
2022-11-27T07:19:22.518Z,0
2022-11-27T07:20:29.156Z,0
2022-11-27T07:21:22.642Z,0
2022-11-27T07:22:28.444Z,0
2022-11-27T07:23:24.435Z,0
2022-11-27T07:24:37.592Z,0
2022-11-27T07:25:27.408Z,0
2022-11-27T07:26:26.457Z,0
2022-11-27T07:27:35.179Z,0
2022-11-27T07:28:27.044Z,0
2022-11-27T07:29:24.522Z,0
2022-11-27T07:30:21.126Z,0
2022-11-27T07:31:39.876Z,0
2022-11-27T07:32:31.775Z,0
2022-11-27T07:33:25.422Z,0
2022-11-27T07:34:42.044Z,0
2022-11-27T07:35:29.485Z,0
2022-11-27T07:36:23.140Z,0
2022-11-27T07:37:21.999Z,0
2022-11-27T07:38:30.721Z,0
2022-11-27T07:40:00.329Z,0
2022-11-27T07:40:23.869Z,0
2022-11-27T07:41:21.407Z,0
2022-11-27T07:42:39.494Z,0
2022-11-27T07:43:29.389Z,0
2022-11-27T07:44:25.746Z,0
2022-11-27T07:45:30.925Z,0
2022-11-27T07:46:28.845Z,0
2022-11-27T07:47:22.888Z,0
2022-11-27T07:48:26.250Z,0
2022-11-27T07:49:29.145Z,0
2022-11-27T07:50:27.659Z,0
2022-11-27T07:51:22.895Z,0
2022-11-27T07:52:44.822Z,0
2022-11-27T07:53:31.473Z,0
2022-11-27T07:54:23.103Z,0
2022-11-27T07:55:21.396Z,0
2022-11-27T07:56:23.645Z,0
2022-11-27T07:57:26.040Z,0
2022-11-27T07:58:21.079Z,0
2022-11-27T07:59:22.870Z,0
2022-11-27T08:00:28.597Z,0
2022-11-27T08:01:29.189Z,0
2022-11-27T08:02:24.212Z,0
2022-11-27T08:03:31.898Z,0
2022-11-27T08:04:27.522Z,0
2022-11-27T08:05:25.016Z,0
2022-11-27T08:06:21.133Z,0
2022-11-27T08:07:28.389Z,0
2022-11-27T08:08:27.915Z,0
2022-11-27T08:09:27.279Z,0
2022-11-27T08:10:31.214Z,0
2022-11-27T08:11:30.476Z,0
2022-11-27T08:12:23.664Z,0
2022-11-27T08:13:27.244Z,0
2022-11-27T08:14:20.619Z,0
2022-11-27T08:15:22.962Z,0
2022-11-27T08:16:39.576Z,0
2022-11-27T08:17:30.828Z,0
2022-11-27T08:18:30.454Z,0
2022-11-27T08:19:21.919Z,0
2022-11-27T08:20:25.567Z,0
2022-11-27T08:21:32.680Z,0
2022-11-27T08:22:24.760Z,0
2022-11-27T08:23:33.878Z,0
2022-11-27T08:24:25.287Z,0
2022-11-27T08:25:25.724Z,0
2022-11-27T08:26:21.380Z,0
2022-11-27T08:27:31.280Z,0
2022-11-27T08:28:28.883Z,0
2022-11-27T08:29:22.513Z,0
2022-11-27T08:30:37.913Z,0
2022-11-27T08:31:26.065Z,0
2022-11-27T08:32:27.113Z,0
2022-11-27T08:33:20.859Z,0
2022-11-27T08:34:23.513Z,0
2022-11-27T08:35:38.454Z,0
2022-11-27T08:36:29.143Z,0
2022-11-27T08:37:34.412Z,0
2022-11-27T08:38:29.163Z,0
2022-11-27T08:39:45.730Z,0
2022-11-27T08:40:20.718Z,0
2022-11-27T08:41:27.277Z,0
2022-11-27T08:42:23.735Z,0
2022-11-27T08:43:29.909Z,0
2022-11-27T08:44:23.937Z,0
2022-11-27T08:45:29.599Z,0
2022-11-27T08:46:25.113Z,0
2022-11-27T08:47:22.596Z,0
2022-11-27T08:48:33.882Z,0
2022-11-27T08:49:31.472Z,0
2022-11-27T08:50:26.298Z,0
2022-11-27T08:51:37.436Z,0
2022-11-27T08:52:20.559Z,0
2022-11-27T08:53:22.811Z,0
2022-11-27T08:54:25.724Z,0
2022-11-27T08:55:35.308Z,0
2022-11-27T08:56:30.489Z,0
2022-11-27T08:57:27.875Z,0
2022-11-27T08:58:37.940Z,0
2022-11-27T08:59:26.824Z,0
2022-11-27T09:00:28.096Z,0
2022-11-27T09:01:22.425Z,0
2022-11-27T09:02:37.803Z,0
2022-11-27T09:03:31.653Z,0
2022-11-27T09:04:28.810Z,0
2022-11-27T09:05:37.903Z,0
2022-11-27T09:06:32.909Z,0
2022-11-27T09:07:21.106Z,0
2022-11-27T09:08:36.360Z,0
2022-11-27T09:09:51.533Z,0
2022-11-27T09:10:30.776Z,0
2022-11-27T09:11:26.067Z,0
2022-11-27T09:12:27.316Z,0
2022-11-27T09:13:33.352Z,0
2022-11-27T09:14:27.755Z,0
2022-11-27T09:15:25.841Z,0
2022-11-27T09:16:35.402Z,0
2022-11-27T09:17:32.195Z,0
2022-11-27T09:18:23.467Z,0
2022-11-27T09:19:37.755Z,0
2022-11-27T09:20:20.888Z,0
2022-11-27T09:21:25.274Z,0
2022-11-27T09:22:24.782Z,0
2022-11-27T09:23:32.417Z,0
2022-11-27T09:24:28.336Z,0
2022-11-27T09:25:23.655Z,0
2022-11-27T09:26:40.666Z,0
2022-11-27T09:27:24.290Z,0
2022-11-27T09:28:31.099Z,0
2022-11-27T09:29:27.662Z,0
2022-11-27T09:30:34.682Z,0
2022-11-27T09:31:29.274Z,0
2022-11-27T09:32:27.814Z,0
2022-11-27T09:33:37.736Z,0
2022-11-27T09:34:37.231Z,0
2022-11-27T09:35:28.227Z,0
2022-11-27T09:36:28.173Z,0
2022-11-27T09:37:28.152Z,0
2022-11-27T09:38:32.125Z,0
2022-11-27T09:39:24.806Z,0
2022-11-27T09:40:22.004Z,0
2022-11-27T09:41:29.433Z,0
2022-11-27T09:42:23.630Z,0
2022-11-27T09:43:23.875Z,0
2022-11-27T09:44:26.892Z,0
2022-11-27T09:45:27.812Z,0
2022-11-27T09:46:27.213Z,0
2022-11-27T09:47:22.785Z,0
2022-11-27T09:48:35.562Z,0
2022-11-27T09:49:27.214Z,0
2022-11-27T09:50:31.034Z,0
2022-11-27T09:51:35.203Z,0
2022-11-27T09:52:26.426Z,0
2022-11-27T09:53:41.483Z,0
2022-11-27T09:54:39.659Z,0
2022-11-27T09:55:45.990Z,0
2022-11-27T09:56:27.540Z,0
2022-11-27T09:57:31.528Z,0
2022-11-27T09:58:21.211Z,0
2022-11-27T10:00:23.453Z,0
2022-11-27T10:01:38.507Z,0
2022-11-27T10:03:24.993Z,0
2022-11-27T10:04:24.546Z,0
2022-11-27T10:05:28.414Z,0
2022-11-27T10:06:36.258Z,0
2022-11-27T10:07:26.054Z,0
2022-11-27T10:08:35.555Z,0
2022-11-27T10:10:22.661Z,0
2022-11-27T10:11:21.500Z,0
2022-11-27T10:12:35.981Z,0
2022-11-27T16:52:53.988Z,6
2022-11-27T18:20:28.002Z,3
2022-11-27T18:21:55.950Z,5
2022-11-27T18:24:14.665Z,6
2022-11-27T18:30:37.154Z,6
2022-11-27T18:32:45.834Z,9
2022-11-27T18:35:20.530Z,4
2022-11-27T18:39:50.987Z,3
2022-11-27T18:47:31.812Z,4
2022-11-27T19:32:28.022Z,6
2022-11-27T19:46:33.939Z,0
2022-11-27T19:47:38.121Z,0
2022-11-27T19:50:33.783Z,5
2022-11-27T20:03:44.554Z,5
2022-11-27T20:27:25.351Z,9
2022-11-27T20:34:28.367Z,3
2022-11-27T20:53:58.456Z,1
2022-11-27T20:55:21.897Z,5
2022-11-27T20:56:24.461Z,5
2022-11-27T21:14:30.715Z,6
2022-11-27T21:15:52.748Z,6
2022-11-27T21:16:44.764Z,6
2022-11-27T21:21:27.150Z,0
2022-11-27T21:24:22.140Z,0
2022-11-27T21:31:45.105Z,5
2022-11-27T21:33:40.267Z,6
2022-11-27T21:34:41.531Z,3
2022-11-27T21:39:25.978Z,2
2022-11-27T21:42:44.823Z,5
2022-11-27T21:47:35.663Z,2
2022-11-27T21:52:21.379Z,3
2022-11-27T21:58:25.869Z,3
2022-11-27T21:59:25.053Z,2
2022-11-27T22:15:22.886Z,5
2022-11-27T22:24:56.476Z,4
2022-11-27T23:20:33.748Z,7
2022-11-27T23:48:44.656Z,0
